Bunnlevel, North Carolina
Current Conditions -  °F | °C
As of 1:35 PM on Thursday 27 Nov 2014 (Local Time) from KHRJ Reporting Station
Overcast Overcast  
Wind Chill: 44°   Ceiling: 1900
Heat Index: 47°   Visibility: 10mi
Dew Point: 39°   Wind: 8mph
Humidity: 72%   Direction: 310°NW
Pressure: 30.06"   Gusts: NA
Location:  35.31°N, 78.78°W
Report Text: KHRJ 271835Z AUTO 31007KT 10SM BKN019 OVC025 09/04 A3006 RMK AO2 T00860038
Loading
Personal Weather Stations






























Interactive Weather Map New forecast layout! Learn more

10-Day Weather Forecast

Advertisements
Track Severe Weather on mobile